Time;durP1;ratioP1;P1;durP2;ratioP2;P2;SDS_P1;SDS_P2;PMS_P1;PMS_P2;Temp;Humidity;BMP_temperature;BMP_pressure;BME280_temperature;BME280_humidity;BME280_pressure;Samples;Min_cycle;Max_cycle;Signal;HPM_P1;HPM_P2
2023/07/30 00:00:06;;;;;;;7.32;5.45;;;15.70;91.20;;;;;;5072665;28;20491;-50
2023/07/30 00:02:34;;;;;;;8.75;6.90;;;15.80;91.30;;;;;;5073287;28;20036;-48
2023/07/30 00:05:02;;;;;;;8.82;5.97;;;15.70;91.40;;;;;;5054743;28;20032;-48
2023/07/30 00:07:28;;;;;;;10.20;6.50;;;15.70;91.40;;;;;;5072529;28;20369;-49
2023/07/30 00:09:55;;;;;;;9.80;6.03;;;15.70;91.40;;;;;;5072606;28;20332;-50
2023/07/30 00:12:22;;;;;;;10.63;6.18;;;15.70;91.40;;;;;;5073146;28;20030;-48
2023/07/30 00:14:49;;;;;;;9.18;6.25;;;15.70;91.40;;;;;;5074944;28;20092;-48
2023/07/30 00:17:16;;;;;;;10.60;6.57;;;15.70;91.40;;;;;;5077408;28;20031;-49
2023/07/30 00:19:43;;;;;;;11.85;6.22;;;15.70;91.40;;;;;;5077180;28;20056;-48
2023/07/30 00:22:09;;;;;;;11.30;6.32;;;15.70;91.40;;;;;;5059662;28;20028;-49
2023/07/30 00:24:35;;;;;;;10.52;6.53;;;15.70;91.50;;;;;;5076110;28;20033;-49
2023/07/30 00:27:02;;;;;;;8.88;6.50;;;15.60;91.40;;;;;;5077158;28;20695;-49
2023/07/30 00:29:29;;;;;;;14.07;6.15;;;15.60;91.40;;;;;;5076929;28;20021;-48
2023/07/30 00:31:55;;;;;;;10.40;6.82;;;15.60;91.40;;;;;;5077227;28;20032;-48
2023/07/30 00:34:24;;;;;;;10.68;6.28;;;15.60;91.50;;;;;;5076049;28;20097;-49
2023/07/30 00:36:51;;;;;;;7.60;6.50;;;15.60;91.40;;;;;;5068278;28;20783;-51
2023/07/30 00:39:17;;;;;;;9.15;5.90;;;15.60;91.30;;;;;;5077017;28;20039;-49
2023/07/30 00:41:46;;;;;;;9.57;6.22;;;15.60;91.40;;;;;;5076299;28;20032;-49
2023/07/30 00:44:15;;;;;;;13.55;6.20;;;15.50;91.30;;;;;;5059293;28;20037;-49
2023/07/30 00:46:42;;;;;;;13.07;7.63;;;15.50;91.30;;;;;;5076848;28;20226;-47
2023/07/30 00:49:09;;;;;;;9.40;6.20;;;15.40;91.20;;;;;;5054640;28;20481;-47
2023/07/30 00:51:37;;;;;;;8.93;6.97;;;15.40;91.20;;;;;;5056538;28;20033;-48
2023/07/30 00:54:03;;;;;;;11.85;6.43;;;15.40;91.30;;;;;;5056536;28;20358;-48
2023/07/30 00:56:30;;;;;;;6.95;5.65;;;15.40;91.20;;;;;;5062353;28;20032;-48
2023/07/30 00:58:57;;;;;;;10.52;6.57;;;15.40;91.20;;;;;;5059010;28;20028;-47
2023/07/30 01:01:27;;;;;;;9.98;6.03;;;15.40;91.20;;;;;;5058930;28;20028;-48
2023/07/30 01:03:54;;;;;;;11.13;7.25;;;15.40;91.10;;;;;;5076351;28;20121;-48
2023/07/30 01:06:21;;;;;;;11.52;7.35;;;15.40;91.30;;;;;;5075654;28;20020;-47
2023/07/30 01:08:48;;;;;;;8.93;6.22;;;15.40;91.20;;;;;;5057941;28;20040;-47
2023/07/30 01:11:15;;;;;;;7.97;5.43;;;15.30;91.20;;;;;;5075384;28;20028;-47
2023/07/30 01:13:43;;;;;;;9.13;7.07;;;15.30;91.20;;;;;;5041180;28;20033;-49
2023/07/30 01:16:10;;;;;;;9.07;5.40;;;15.40;91.20;;;;;;5058241;28;20025;-47
2023/07/30 01:18:38;;;;;;;11.63;5.63;;;15.30;91.20;;;;;;5075833;28;20031;-46
2023/07/30 01:21:05;;;;;;;7.63;5.47;;;15.30;91.30;;;;;;5074951;28;20031;-47
2023/07/30 01:23:30;;;;;;;10.73;6.38;;;15.40;91.30;;;;;;5075650;28;20663;-47
2023/07/30 01:26:26;;;;;;;19.73;6.68;;;15.40;91.20;;;;;;5057965;28;20124;-47
2023/07/30 01:28:56;;;;;;;13.00;5.68;;;15.30;91.20;;;;;;5061477;28;20053;-47
2023/07/30 01:31:26;;;;;;;10.85;6.18;;;15.30;91.20;;;;;;5075385;28;20044;-46
2023/07/30 01:33:55;;;;;;;9.90;6.15;;;15.20;91.20;;;;;;5075172;28;20060;-47
2023/07/30 01:36:22;;;;;;;8.02;5.93;;;15.30;91.40;;;;;;5074786;28;20054;-47
2023/07/30 01:38:55;;;;;;;9.25;5.88;;;15.20;91.30;;;;;;5075242;28;20028;-47
2023/07/30 01:41:21;;;;;;;10.48;6.47;;;15.20;91.30;;;;;;5074740;28;20147;-47
2023/07/30 01:43:48;;;;;;;11.82;5.88;;;15.20;91.30;;;;;;5075405;28;20126;-48
2023/07/30 01:46:15;;;;;;;7.78;5.93;;;15.20;91.30;;;;;;5075240;28;20457;-46
2023/07/30 01:48:44;;;;;;;12.73;6.13;;;15.20;91.30;;;;;;5074723;28;20679;-48
2023/07/30 01:51:10;;;;;;;12.20;5.72;;;15.20;91.30;;;;;;5075691;28;20037;-47
2023/07/30 01:53:37;;;;;;;9.48;5.50;;;15.20;91.40;;;;;;5074780;28;20035;-47
2023/07/30 01:56:04;;;;;;;9.57;5.80;;;15.20;91.40;;;;;;5075511;28;20417;-46
2023/07/30 01:58:33;;;;;;;12.15;6.28;;;15.20;91.40;;;;;;5075611;28;20056;-46
2023/07/30 02:01:00;;;;;;;10.18;5.95;;;15.20;91.40;;;;;;5075222;28;20025;-46
2023/07/30 02:03:27;;;;;;;8.23;5.13;;;15.10;91.30;;;;;;5057834;28;20046;-48
2023/07/30 02:05:54;;;;;;;14.63;6.38;;;15.20;91.40;;;;;;5075133;28;20082;-48
2023/07/30 02:08:21;;;;;;;10.45;6.15;;;15.20;91.40;;;;;;5075137;28;20029;-46
2023/07/30 02:11:02;;;;;;;13.52;5.90;;;15.20;91.40;;;;;;5057034;28;20032;-46
2023/07/30 02:13:31;;;;;;;12.15;7.25;;;15.10;91.40;;;;;;5075077;28;20025;-46
2023/07/30 02:16:00;;;;;;;16.38;7.18;;;15.10;91.40;;;;;;5056302;28;20041;-46
2023/07/30 02:18:27;;;;;;;13.20;6.47;;;15.10;91.40;;;;;;5075266;28;20090;-46
2023/07/30 02:20:56;;;;;;;10.50;6.65;;;15.10;91.30;;;;;;5074372;28;20052;-46
2023/07/30 02:23:22;;;;;;;11.80;6.25;;;15.10;91.40;;;;;;5074960;28;20107;-46
2023/07/30 02:25:49;;;;;;;9.45;6.07;;;15.10;91.40;;;;;;5073975;28;20112;-46
2023/07/30 02:28:18;;;;;;;12.20;7.00;;;15.00;91.50;;;;;;5074873;28;20040;-45
2023/07/30 02:30:45;;;;;;;13.00;6.65;;;15.00;91.50;;;;;;5074867;28;20098;-46
2023/07/30 02:33:10;;;;;;;9.82;5.47;;;15.00;91.50;;;;;;5053000;28;20091;-45
2023/07/30 02:35:36;;;;;;;9.82;6.65;;;15.00;91.50;;;;;;5055404;28;20052;-45
2023/07/30 02:38:03;;;;;;;13.63;7.25;;;15.00;91.50;;;;;;5074220;28;20033;-45
2023/07/30 02:40:30;;;;;;;13.88;6.75;;;15.00;91.60;;;;;;5074374;28;20024;-45
2023/07/30 02:42:57;;;;;;;12.15;5.97;;;15.00;91.60;;;;;;5073844;28;20020;-45
2023/07/30 02:45:24;;;;;;;11.70;6.13;;;15.00;91.60;;;;;;5056883;28;20038;-45
2023/07/30 02:47:51;;;;;;;11.57;6.20;;;15.00;91.70;;;;;;5056419;28;20496;-45
2023/07/30 02:50:17;;;;;;;15.38;6.05;;;15.00;91.70;;;;;;5074483;28;20024;-46
2023/07/30 02:52:44;;;;;;;13.63;6.70;;;15.00;91.70;;;;;;5074315;28;20349;-46
2023/07/30 02:55:13;;;;;;;11.25;6.95;;;15.00;91.80;;;;;;5056110;28;20060;-45
2023/07/30 02:57:41;;;;;;;11.38;5.95;;;15.00;91.80;;;;;;5074480;28;20025;-45
2023/07/30 03:00:11;;;;;;;16.88;6.63;;;15.00;91.80;;;;;;5073391;28;20433;-45
2023/07/30 03:02:37;;;;;;;8.30;5.05;;;15.00;91.70;;;;;;5074055;28;20032;-46
2023/07/30 03:05:04;;;;;;;11.23;6.05;;;15.00;91.70;;;;;;5073921;28;20033;-45
2023/07/30 03:07:35;;;;;;;14.20;6.57;;;15.00;91.80;;;;;;5055490;28;20028;-45
2023/07/30 03:10:02;;;;;;;12.77;5.82;;;14.90;91.50;;;;;;5056445;28;20496;-44
2023/07/30 03:12:29;;;;;;;11.48;7.05;;;14.90;91.70;;;;;;5073305;28;20032;-47
2023/07/30 03:14:55;;;;;;;11.68;6.35;;;14.90;91.80;;;;;;5073754;28;20567;-45
2023/07/30 03:17:22;;;;;;;11.77;5.93;;;14.90;91.90;;;;;;5074041;28;20063;-45
2023/07/30 03:19:49;;;;;;;12.43;6.72;;;14.80;91.90;;;;;;5073291;28;20017;-45
2023/07/30 03:22:18;;;;;;;12.93;6.32;;;14.80;91.90;;;;;;5072996;28;20095;-45
2023/07/30 03:24:47;;;;;;;15.45;6.85;;;14.80;91.90;;;;;;5073632;28;20033;-44
2023/07/30 03:27:13;;;;;;;12.82;7.25;;;14.80;91.80;;;;;;5073689;28;20615;-45
2023/07/30 03:29:40;;;;;;;12.80;6.68;;;14.70;92.00;;;;;;5073016;28;20425;-45
2023/07/30 03:32:06;;;;;;;16.02;7.13;;;14.70;91.90;;;;;;5073422;28;20020;-45
2023/07/30 03:34:34;;;;;;;16.25;7.28;;;14.70;91.90;;;;;;5073566;28;20372;-46
2023/07/30 03:37:01;;;;;;;13.05;6.43;;;14.60;92.00;;;;;;5073003;28;20025;-45
2023/07/30 03:39:28;;;;;;;12.18;7.43;;;14.60;92.20;;;;;;5073599;28;20048;-45
2023/07/30 03:41:55;;;;;;;12.32;7.05;;;14.60;92.10;;;;;;5073453;28;20027;-45
2023/07/30 03:44:22;;;;;;;12.82;7.20;;;14.60;92.10;;;;;;5072844;28;20028;-45
2023/07/30 03:46:48;;;;;;;14.20;8.05;;;14.60;92.30;;;;;;5073543;28;20052;-45
2023/07/30 03:49:18;;;;;;;12.25;7.80;;;14.50;92.40;;;;;;5072083;28;20126;-45
2023/07/30 03:51:45;;;;;;;14.35;8.73;;;14.60;92.50;;;;;;5073531;28;20033;-45
2023/07/30 03:54:11;;;;;;;13.63;7.78;;;14.60;92.40;;;;;;5073090;28;20398;-44
2023/07/30 03:56:37;;;;;;;15.95;7.80;;;14.60;92.40;;;;;;5072394;28;20036;-44
2023/07/30 03:59:03;;;;;;;12.40;8.05;;;14.60;92.50;;;;;;5073264;28;20477;-44
2023/07/30 04:01:30;;;;;;;14.57;7.85;;;14.70;92.60;;;;;;5055865;28;20031;-44
2023/07/30 04:03:58;;;;;;;17.30;8.60;;;14.70;92.40;;;;;;5072774;28;20028;-44
2023/07/30 04:06:26;;;;;;;15.75;8.25;;;14.70;92.40;;;;;;5055601;28;20396;-45
2023/07/30 04:08:53;;;;;;;12.10;7.85;;;14.70;92.40;;;;;;5073366;28;20032;-44
2023/07/30 04:11:19;;;;;;;11.60;7.25;;;14.70;92.50;;;;;;5072587;28;20404;-44
2023/07/30 04:13:48;;;;;;;20.77;8.57;;;14.80;92.60;;;;;;5055651;28;20044;-45
2023/07/30 04:16:15;;;;;;;12.57;7.75;;;14.80;92.50;;;;;;5072115;28;20064;-44
2023/07/30 04:18:44;;;;;;;13.57;7.82;;;14.90;92.60;;;;;;5055800;28;20025;-44
2023/07/30 04:21:11;;;;;;;16.67;8.05;;;14.90;92.60;;;;;;5055535;28;20086;-45
2023/07/30 04:23:38;;;;;;;16.50;7.75;;;14.90;92.60;;;;;;5054436;28;20025;-44
2023/07/30 04:26:07;;;;;;;11.75;7.28;;;14.90;92.70;;;;;;5072910;28;20028;-44
2023/07/30 04:28:36;;;;;;;14.95;7.70;;;14.90;92.70;;;;;;5073049;28;20052;-44
2023/07/30 04:31:06;;;;;;;12.63;8.63;;;15.00;92.70;;;;;;5072115;28;20119;-44
2023/07/30 04:33:33;;;;;;;13.55;8.45;;;15.00;92.80;;;;;;5072672;28;20302;-44
2023/07/30 04:35:59;;;;;;;11.50;6.93;;;15.10;92.90;;;;;;5072355;28;20036;-44
2023/07/30 04:38:26;;;;;;;13.82;7.60;;;15.10;92.90;;;;;;5072509;28;20039;-45
2023/07/30 04:40:52;;;;;;;13.30;7.15;;;15.10;92.90;;;;;;5053670;28;20112;-45
2023/07/30 04:43:18;;;;;;;17.52;8.93;;;15.10;92.80;;;;;;5072213;28;20091;-47
2023/07/30 04:45:45;;;;;;;17.10;7.85;;;15.10;93.00;;;;;;5072449;28;20066;-44
2023/07/30 04:48:11;;;;;;;20.85;8.70;;;15.20;92.90;;;;;;5072997;28;20035;-44
2023/07/30 04:50:41;;;;;;;14.73;8.23;;;15.20;92.90;;;;;;5055105;28;20032;-45
2023/07/30 04:53:08;;;;;;;13.95;8.75;;;15.30;93.00;;;;;;5072872;28;20020;-44
2023/07/30 04:55:35;;;;;;;14.40;8.13;;;15.30;92.90;;;;;;5072471;28;20032;-44
2023/07/30 04:58:03;;;;;;;19.20;9.23;;;15.40;92.80;;;;;;5072786;28;20016;-46
2023/07/30 05:00:32;;;;;;;18.55;8.15;;;15.40;92.70;;;;;;5074519;28;20024;-44
2023/07/30 05:02:59;;;;;;;21.67;8.88;;;15.40;92.80;;;;;;5075908;28;20029;-45
2023/07/30 05:05:25;;;;;;;16.77;8.18;;;15.50;92.80;;;;;;5076303;28;20033;-45
2023/07/30 05:07:52;;;;;;;18.63;9.65;;;15.60;92.90;;;;;;5058099;28;20441;-44
2023/07/30 05:10:19;;;;;;;19.00;7.97;;;15.60;92.80;;;;;;5076356;28;20093;-45
2023/07/30 05:12:46;;;;;;;16.95;7.53;;;15.70;92.80;;;;;;5075612;28;20028;-45
2023/07/30 05:15:15;;;;;;;15.15;7.60;;;15.70;92.70;;;;;;5076205;28;20028;-44
2023/07/30 05:17:41;;;;;;;12.07;7.28;;;15.70;92.70;;;;;;5075909;28;20070;-45
2023/07/30 05:20:09;;;;;;;13.48;7.53;;;15.70;92.50;;;;;;5075719;28;20028;-44
2023/07/30 05:22:39;;;;;;;14.15;6.50;;;15.70;92.60;;;;;;5074648;28;20039;-45
2023/07/30 05:25:05;;;;;;;11.32;7.00;;;15.80;92.60;;;;;;5058034;28;20043;-45
2023/07/30 05:27:31;;;;;;;13.05;6.95;;;15.80;92.50;;;;;;5075188;28;20044;-45
2023/07/30 05:29:59;;;;;;;18.08;9.55;;;15.80;92.60;;;;;;5076085;28;20025;-47
2023/07/30 05:32:25;;;;;;;16.58;6.45;;;15.90;92.40;;;;;;5075737;28;20044;-46
2023/07/30 05:34:51;;;;;;;13.60;7.18;;;15.90;92.40;;;;;;5075167;28;20055;-45
2023/07/30 05:37:17;;;;;;;14.98;6.75;;;15.80;92.00;;;;;;5074877;28;20437;-47
2023/07/30 05:39:44;;;;;;;14.63;7.38;;;15.80;92.10;;;;;;5075844;28;20048;-46
2023/07/30 05:42:13;;;;;;;15.77;6.45;;;15.90;92.00;;;;;;5075801;28;20463;-46
2023/07/30 05:44:44;;;;;;;19.70;7.18;;;15.90;92.10;;;;;;5075611;28;20040;-46
2023/07/30 05:47:13;;;;;;;16.83;7.03;;;15.90;92.00;;;;;;5075120;28;20111;-45
2023/07/30 05:49:42;;;;;;;10.48;6.07;;;15.90;92.00;;;;;;5057923;28;20434;-46
2023/07/30 05:52:11;;;;;;;13.88;6.50;;;15.90;91.70;;;;;;5074773;28;20036;-46
2023/07/30 05:54:37;;;;;;;18.52;8.13;;;15.90;91.80;;;;;;5075621;28;20032;-46
2023/07/30 05:57:04;;;;;;;16.05;6.82;;;15.90;91.80;;;;;;5075509;28;20078;-47
2023/07/30 05:59:33;;;;;;;11.73;5.78;;;15.90;91.80;;;;;;5056814;28;20020;-46
2023/07/30 06:02:03;;;;;;;16.70;6.88;;;16.10;91.90;;;;;;5075222;28;20382;-46
2023/07/30 06:04:34;;;;;;;14.93;6.15;;;16.20;91.70;;;;;;5057175;28;20126;-46
2023/07/30 06:07:03;;;;;;;16.23;7.72;;;16.30;91.80;;;;;;5075352;28;20098;-46
2023/07/30 06:09:30;;;;;;;22.38;8.52;;;16.40;91.60;;;;;;5075180;28;20032;-46
2023/07/30 06:12:00;;;;;;;16.70;7.00;;;16.40;91.30;;;;;;5074163;28;20032;-47
2023/07/30 06:14:27;;;;;;;16.23;6.18;;;16.50;91.30;;;;;;5074266;28;20059;-49
2023/07/30 06:16:54;;;;;;;18.27;7.90;;;16.60;91.50;;;;;;5074709;28;20050;-47
2023/07/30 06:19:21;;;;;;;17.35;7.25;;;16.80;91.70;;;;;;5075182;28;20028;-47
2023/07/30 06:21:47;;;;;;;15.38;6.10;;;16.90;91.20;;;;;;5075153;28;20029;-49
2023/07/30 06:24:14;;;;;;;16.45;5.85;;;16.90;90.50;;;;;;5074297;28;20025;-48
2023/07/30 06:26:41;;;;;;;13.52;5.80;;;16.90;90.50;;;;;;5074912;28;20029;-47
2023/07/30 06:29:07;;;;;;;17.02;6.38;;;16.90;90.30;;;;;;5074169;28;20033;-48
2023/07/30 06:31:35;;;;;;;15.27;5.72;;;16.90;90.00;;;;;;5074826;28;20024;-47
2023/07/30 06:34:02;;;;;;;17.02;5.32;;;16.90;90.20;;;;;;5073974;28;20044;-48
2023/07/30 06:36:28;;;;;;;19.55;6.20;;;16.90;90.20;;;;;;5074503;28;20369;-48
2023/07/30 06:38:55;;;;;;;15.82;6.53;;;17.00;89.90;;;;;;5074763;28;20504;-48
2023/07/30 06:41:22;;;;;;;14.35;5.75;;;17.10;90.10;;;;;;5056453;28;20039;-48
2023/07/30 06:43:49;;;;;;;16.35;5.57;;;17.20;90.10;;;;;;5074492;28;20089;-49
2023/07/30 06:46:18;;;;;;;18.95;6.18;;;17.40;90.10;;;;;;5057040;28;20020;-48
2023/07/30 06:48:45;;;;;;;16.02;4.57;;;17.40;89.80;;;;;;5074387;28;20040;-53
2023/07/30 06:51:13;;;;;;;18.27;5.35;;;17.50;89.60;;;;;;5073923;28;20131;-49
2023/07/30 06:53:40;;;;;;;14.57;5.10;;;17.50;89.10;;;;;;5074409;28;20031;-48
2023/07/30 06:56:07;;;;;;;12.30;4.70;;;17.60;89.10;;;;;;5073588;28;20033;-48
2023/07/30 06:58:33;;;;;;;15.23;5.13;;;17.70;88.90;;;;;;5074317;28;20079;-49
2023/07/30 07:01:02;;;;;;;11.98;4.68;;;17.80;88.10;;;;;;5056690;28;20029;-51
2023/07/30 07:03:30;;;;;;;16.92;4.72;;;17.90;87.60;;;;;;5074126;28;20044;-49
2023/07/30 07:05:58;;;;;;;13.50;4.85;;;17.90;87.30;;;;;;5073784;28;20030;-47
2023/07/30 07:08:27;;;;;;;13.60;4.03;;;18.20;86.90;;;;;;5074130;28;20048;-49
2023/07/30 07:10:53;;;;;;;15.35;4.55;;;18.10;86.50;;;;;;5073677;28;20028;-50
2023/07/30 07:13:20;;;;;;;18.00;4.63;;;18.20;86.80;;;;;;5073896;28;20488;-49
2023/07/30 07:15:49;;;;;;;10.40;4.85;;;18.40;86.20;;;;;;5073932;28;20047;-49
2023/07/30 07:18:16;;;;;;;13.70;4.47;;;18.40;85.80;;;;;;5074072;28;20083;-47
2023/07/30 07:20:42;;;;;;;14.02;4.40;;;18.30;84.80;;;;;;5073242;28;20032;-49
2023/07/30 07:23:09;;;;;;;16.15;5.18;;;18.20;85.00;;;;;;5073684;28;20099;-48
2023/07/30 07:25:37;;;;;;;15.73;4.15;;;18.30;85.30;;;;;;5073713;28;20031;-48
2023/07/30 07:28:04;;;;;;;8.65;3.25;;;18.40;85.50;;;;;;5073312;28;20457;-49
2023/07/30 07:30:33;;;;;;;10.60;3.13;;;18.40;84.50;;;;;;5073890;28;20052;-49
2023/07/30 07:32:59;;;;;;;10.45;3.33;;;18.20;84.40;;;;;;5073533;28;20044;-50
2023/07/30 07:35:25;;;;;;;9.85;3.50;;;18.20;85.00;;;;;;5051449;28;20063;-48
2023/07/30 07:37:52;;;;;;;9.20;4.85;;;18.20;84.80;;;;;;5053572;28;20108;-49
2023/07/30 07:40:24;;;;;;;10.15;3.17;;;18.20;84.90;;;;;;5066380;28;20029;-49
2023/07/30 07:42:50;;;;;;;10.77;3.90;;;18.10;84.80;;;;;;5073503;28;20028;-51
2023/07/30 07:45:16;;;;;;;13.00;3.45;;;18.00;84.70;;;;;;5073069;28;20036;-48
2023/07/30 07:47:45;;;;;;;13.85;4.28;;;17.90;84.50;;;;;;5055828;28;20077;-49
2023/07/30 07:50:12;;;;;;;8.40;3.47;;;17.90;84.60;;;;;;5073625;28;20020;-48
2023/07/30 07:52:38;;;;;;;11.63;3.63;;;17.90;84.30;;;;;;5055879;28;20059;-47
2023/07/30 07:55:08;;;;;;;11.48;3.25;;;17.90;84.20;;;;;;5072765;28;20483;-53
2023/07/30 07:57:34;;;;;;;;;;;17.90;83.90;;;;;;5056582;28;20120;-53
2023/07/30 08:00:02;;;;;;;16.17;3.42;;;17.90;83.70;;;;;;5072763;28;19987;-49
2023/07/30 08:02:29;;;;;;;12.20;3.30;;;17.90;84.00;;;;;;5073405;28;20025;-48
2023/07/30 08:04:58;;;;;;;14.70;3.45;;;17.90;83.80;;;;;;5073312;28;20081;-48
2023/07/30 08:07:25;;;;;;;;;;;18.00;84.10;;;;;;5055733;28;20021;-49
2023/07/30 08:09:52;;;;;;;11.15;3.63;;;18.10;83.80;;;;;;5073143;28;19904;-48
2023/07/30 08:12:19;;;;;;;8.55;3.28;;;18.00;83.20;;;;;;5073485;28;20434;-49
2023/07/30 08:14:46;;;;;;;12.55;2.88;;;18.00;82.80;;;;;;5073043;28;20036;-49
2023/07/30 08:17:13;;;;;;;12.50;3.42;;;17.90;82.70;;;;;;5072444;28;20048;-48
2023/07/30 08:19:40;;;;;;;11.50;2.85;;;18.00;82.90;;;;;;5073499;28;20059;-50
2023/07/30 08:22:09;;;;;;;11.48;3.97;;;18.00;83.20;;;;;;5073206;28;20030;-51
2023/07/30 08:24:37;;;;;;;10.35;3.42;;;17.90;83.00;;;;;;5073031;28;20349;-48
2023/07/30 08:27:05;;;;;;;16.92;4.25;;;17.90;83.20;;;;;;5072743;28;20032;-50
2023/07/30 08:29:32;;;;;;;9.00;2.85;;;17.90;83.60;;;;;;5073147;28;20169;-48
2023/07/30 08:31:59;;;;;;;12.02;4.13;;;17.90;83.80;;;;;;5073247;28;20051;-48
2023/07/30 08:34:28;;;;;;;12.13;3.05;;;18.00;83.20;;;;;;5072216;28;20467;-48
2023/07/30 08:36:54;;;;;;;10.02;3.38;;;18.10;83.50;;;;;;5059295;28;20033;-50
2023/07/30 08:39:21;;;;;;;12.35;3.42;;;18.20;82.30;;;;;;5076996;28;20021;-48
2023/07/30 08:41:48;;;;;;;12.68;3.17;;;18.30;82.60;;;;;;5076350;28;20040;-50
2023/07/30 08:44:14;;;;;;;13.32;3.95;;;18.30;82.40;;;;;;5076975;28;20059;-51
2023/07/30 08:46:41;;;;;;;11.52;3.20;;;18.30;82.10;;;;;;5075963;28;20422;-54
2023/07/30 08:49:08;;;;;;;11.98;3.38;;;18.40;82.10;;;;;;5076925;28;20032;-49
2023/07/30 08:51:37;;;;;;;11.35;3.15;;;18.40;81.80;;;;;;5076996;28;20019;-48
2023/07/30 08:54:04;;;;;;;10.82;3.33;;;18.40;81.90;;;;;;5058054;28;20035;-53
2023/07/30 08:56:31;;;;;;;8.38;3.33;;;18.40;82.10;;;;;;5075779;28;20028;-49
2023/07/30 08:58:59;;;;;;;9.52;3.10;;;18.50;82.10;;;;;;5076580;28;20025;-49
2023/07/30 09:01:34;;;;;;;13.27;4.03;;;18.40;81.70;;;;;;5076669;28;20016;-50
2023/07/30 09:04:02;;;;;;;11.45;4.32;;;18.50;81.80;;;;;;5057799;28;20025;-52
2023/07/30 09:06:29;;;;;;;13.90;4.20;;;18.40;80.30;;;;;;5076315;28;20032;-48
2023/07/30 09:08:56;;;;;;;14.02;3.30;;;18.40;80.90;;;;;;5076556;28;20056;-54
2023/07/30 09:11:26;;;;;;;10.30;2.70;;;18.40;81.50;;;;;;5076465;28;20094;-49
2023/07/30 09:13:55;;;;;;;9.65;3.15;;;18.40;80.80;;;;;;5075924;28;20094;-49
2023/07/30 09:16:25;;;;;;;8.43;3.25;;;18.70;81.10;;;;;;5076192;28;20059;-48
2023/07/30 09:18:54;;;;;;;12.73;3.42;;;18.80;79.60;;;;;;5058478;28;20028;-48
2023/07/30 09:21:30;;;;;;;11.75;3.65;;;18.90;79.00;;;;;;5058140;28;20024;-48
2023/07/30 09:23:58;;;;;;;7.15;2.40;;;19.00;78.50;;;;;;5076089;28;20037;-49
2023/07/30 09:26:28;;;;;;;12.27;2.80;;;19.10;77.50;;;;;;5075985;28;20086;-48
2023/07/30 09:28:56;;;;;;;13.32;3.28;;;19.10;77.70;;;;;;5058454;28;20029;-50
2023/07/30 09:31:23;;;;;;;8.77;3.20;;;19.40;77.90;;;;;;5075340;28;20527;-48
2023/07/30 09:33:52;;;;;;;9.52;2.83;;;19.70;76.70;;;;;;5075874;28;20119;-48
2023/07/30 09:36:20;;;;;;;12.43;3.60;;;19.90;75.00;;;;;;5057504;28;20055;-48
2023/07/30 09:38:49;;;;;;;9.73;3.13;;;19.90;74.30;;;;;;5058270;28;20060;-48
2023/07/30 09:41:21;;;;;;;9.85;2.92;;;20.30;75.40;;;;;;5075128;28;20020;-48
2023/07/30 09:43:49;;;;;;;9.43;3.35;;;20.60;73.70;;;;;;5075775;28;20033;-48
2023/07/30 09:46:18;;;;;;;9.68;2.90;;;20.90;73.00;;;;;;5074593;28;20052;-50
2023/07/30 09:48:47;;;;;;;12.55;4.38;;;21.00;73.30;;;;;;5075163;28;20119;-54
2023/07/30 09:51:15;;;;;;;11.93;3.22;;;21.00;72.40;;;;;;5058196;28;20032;-48
2023/07/30 09:53:42;;;;;;;10.32;2.95;;;21.10;72.60;;;;;;5075598;28;20358;-49
2023/07/30 09:56:08;;;;;;;13.38;3.25;;;21.00;72.30;;;;;;5074776;28;20098;-50
2023/07/30 09:58:37;;;;;;;7.68;2.88;;;21.10;72.10;;;;;;5075654;28;20037;-48
2023/07/30 10:01:05;;;;;;;9.02;2.20;;;21.00;72.70;;;;;;5074472;28;20070;-49
2023/07/30 10:03:35;;;;;;;10.10;2.53;;;21.10;72.30;;;;;;5075501;28;20062;-49
2023/07/30 10:06:07;;;;;;;12.98;3.10;;;21.00;71.70;;;;;;5075319;28;20108;-48
2023/07/30 10:08:39;;;;;;;8.60;2.58;;;20.90;72.80;;;;;;5075323;28;20372;-47
2023/07/30 10:11:08;;;;;;;13.55;3.42;;;20.90;72.10;;;;;;5056813;28;20067;-53
2023/07/30 10:13:41;;;;;;;11.30;3.22;;;20.90;72.10;;;;;;5075355;28;20020;-48
2023/07/30 10:16:12;;;;;;;15.60;2.92;;;20.90;73.30;;;;;;5074762;28;20029;-48
2023/07/30 10:18:43;;;;;;;8.20;2.63;;;20.70;71.70;;;;;;5075076;28;20029;-49
2023/07/30 10:21:21;;;;;;;7.35;2.88;;;20.50;72.00;;;;;;5074779;28;20032;-48
2023/07/30 10:24:10;;;;;;;7.65;2.35;;;20.40;71.40;;;;;;5057252;28;20025;-49
2023/07/30 10:26:37;;;;;;;7.73;2.07;;;20.10;70.70;;;;;;5054986;28;20033;-52
2023/07/30 10:29:23;;;;;;;10.80;2.67;;;19.90;71.50;;;;;;5054911;28;20108;-48
2023/07/30 10:31:57;;;;;;;9.63;2.60;;;19.80;72.50;;;;;;5058174;28;20395;-52
2023/07/30 10:34:43;;;;;;;6.35;2.15;;;19.70;72.10;;;;;;5074176;28;20127;-48
2023/07/30 10:37:11;;;;;;;13.85;2.63;;;19.40;71.50;;;;;;5073561;28;20423;-47
2023/07/30 10:39:40;;;;;;;5.53;1.73;;;19.30;71.00;;;;;;5073748;28;20024;-48
2023/07/30 10:42:08;;;;;;;10.10;1.63;;;19.10;70.20;;;;;;5074101;28;20025;-48
2023/07/30 10:44:35;;;;;;;4.20;1.50;;;19.00;70.80;;;;;;5073196;28;20064;-48
2023/07/30 10:47:02;;;;;;;6.93;1.65;;;18.90;70.60;;;;;;5074002;28;20094;-49
2023/07/30 10:49:31;;;;;;;5.72;1.75;;;18.90;71.80;;;;;;5056417;28;20070;-47
2023/07/30 10:51:59;;;;;;;7.90;2.22;;;18.90;73.20;;;;;;5073801;28;20043;-49
2023/07/30 10:54:28;;;;;;;7.53;1.75;;;18.90;74.60;;;;;;5072650;28;20039;-47
2023/07/30 10:56:55;;;;;;;9.23;2.20;;;18.80;74.80;;;;;;5056051;28;20115;-47
2023/07/30 10:59:23;;;;;;;6.35;2.17;;;18.70;75.30;;;;;;5073448;28;20016;-49
2023/07/30 11:01:53;;;;;;;8.57;1.95;;;18.60;76.00;;;;;;5073181;28;20110;-48
2023/07/30 11:04:23;;;;;;;6.05;1.50;;;18.60;76.80;;;;;;5073672;28;20020;-48
2023/07/30 11:06:51;;;;;;;5.50;1.60;;;18.50;77.20;;;;;;5073410;28;20028;-50
2023/07/30 11:09:26;;;;;;;7.35;2.00;;;18.50;77.20;;;;;;5072826;28;20033;-48
2023/07/30 11:11:57;;;;;;;5.00;2.10;;;18.30;77.50;;;;;;5073643;28;20020;-47
2023/07/30 11:14:27;;;;;;;7.80;1.73;;;18.30;78.50;;;;;;5054852;28;20025;-45
2023/07/30 11:17:17;;;;;;;9.05;2.30;;;18.30;79.80;;;;;;5056284;28;20024;-45
2023/07/30 11:19:44;;;;;;;6.38;1.90;;;18.30;80.10;;;;;;5073862;28;20086;-47
2023/07/30 11:22:11;;;;;;;7.47;2.05;;;18.10;80.30;;;;;;5056311;28;20048;-45
2023/07/30 11:24:41;;;;;;;7.88;2.88;;;18.20;80.60;;;;;;5073100;28;20637;-45
2023/07/30 11:27:09;;;;;;;7.05;1.95;;;18.30;80.70;;;;;;5073901;28;20039;-46
2023/07/30 11:29:36;;;;;;;6.78;1.77;;;18.40;80.20;;;;;;5073690;28;20112;-49
2023/07/30 11:32:03;;;;;;;6.35;1.77;;;18.40;80.50;;;;;;5055041;28;20416;-48
2023/07/30 11:34:31;;;;;;;6.72;2.33;;;18.30;80.40;;;;;;5073581;28;20037;-47
2023/07/30 11:36:58;;;;;;;8.10;2.00;;;18.30;80.30;;;;;;5055553;28;20025;-48
2023/07/30 11:39:28;;;;;;;6.57;1.90;;;18.30;80.50;;;;;;5073727;28;20048;-47
2023/07/30 11:41:55;;;;;;;6.25;1.80;;;18.20;80.80;;;;;;5072859;28;20067;-47
2023/07/30 11:44:32;;;;;;;8.10;2.50;;;18.10;80.60;;;;;;5056254;28;20024;-47
2023/07/30 11:47:00;;;;;;;8.30;2.33;;;17.90;81.30;;;;;;5073021;28;20375;-48
2023/07/30 11:49:29;;;;;;;9.13;2.70;;;17.90;81.20;;;;;;5055882;28;20055;-47
2023/07/30 11:52:05;;;;;;;6.15;2.00;;;17.70;81.70;;;;;;5056161;28;20032;-46
2023/07/30 11:54:32;;;;;;;7.00;2.10;;;17.60;82.00;;;;;;5072498;28;20032;-44
2023/07/30 11:56:59;;;;;;;6.47;2.47;;;17.50;83.40;;;;;;5073981;28;20017;-46
2023/07/30 11:59:28;;;;;;;7.47;2.25;;;17.50;83.80;;;;;;5054920;28;20017;-46
2023/07/30 12:01:57;;;;;;;10.10;3.40;;;17.50;84.90;;;;;;5073235;28;20085;-46
2023/07/30 12:04:24;;;;;;;7.53;3.00;;;17.70;85.30;;;;;;5056139;28;20067;-45
2023/07/30 12:06:53;;;;;;;9.23;2.80;;;17.90;85.60;;;;;;5073846;28;20079;-45
2023/07/30 12:09:25;;;;;;;9.82;2.47;;;18.30;85.00;;;;;;5054679;28;20037;-46
2023/07/30 12:12:10;;;;;;;6.03;2.22;;;18.70;84.80;;;;;;5055690;28;20100;-44
2023/07/30 12:14:48;;;;;;;10.48;2.10;;;18.90;84.30;;;;;;5055484;28;20024;-45
2023/07/30 12:17:15;;;;;;;6.57;2.22;;;18.60;81.80;;;;;;5072675;28;20352;-45
2023/07/30 12:19:42;;;;;;;7.10;2.00;;;18.50;82.50;;;;;;5073376;28;20029;-46
2023/07/30 12:22:11;;;;;;;5.28;2.08;;;18.30;82.50;;;;;;5072479;28;20028;-45
2023/07/30 12:24:39;;;;;;;15.75;2.97;;;18.20;82.90;;;;;;5073210;28;20028;-44
2023/07/30 12:27:06;;;;;;;9.95;3.28;;;17.90;83.70;;;;;;5072954;28;20036;-44
2023/07/30 12:29:35;;;;;;;7.70;2.47;;;17.80;84.60;;;;;;5073084;28;20535;-45
2023/07/30 12:32:03;;;;;;;6.87;2.27;;;17.70;84.80;;;;;;5054426;28;20036;-44
2023/07/30 12:34:31;;;;;;;7.82;2.53;;;17.70;85.70;;;;;;5072797;28;20076;-44
2023/07/30 12:36:59;;;;;;;6.68;2.40;;;17.70;86.20;;;;;;5072494;28;20028;-44
2023/07/30 12:39:26;;;;;;;5.57;2.17;;;17.80;86.40;;;;;;5072834;28;20021;-45
2023/07/30 12:41:53;;;;;;;7.45;3.05;;;18.00;86.30;;;;;;5072971;28;20024;-46
2023/07/30 12:44:19;;;;;;;6.35;1.90;;;18.20;86.20;;;;;;5072641;28;20028;-45